sensor_id;sensor_type;location;lat;lon;timestamp;pressure;altitude;pressure_sealevel;temperature;humidity
30935;BME280;51033;42.648;23.292;2023-04-08T00:00:12;93897.72;;;6.02;49.47
30935;BME280;51033;42.648;23.292;2023-04-08T00:02:38;93893.34;;;6.16;49.39
30935;BME280;51033;42.648;23.292;2023-04-08T00:05:04;93877.34;;;6.02;49.21
30935;BME280;51033;42.648;23.292;2023-04-08T00:07:30;93883.38;;;5.84;49.83
30935;BME280;51033;42.648;23.292;2023-04-08T00:09:55;93900.53;;;5.86;49.84
30935;BME280;51033;42.648;23.292;2023-04-08T00:12:21;93892.78;;;5.71;50.33
30935;BME280;51033;42.648;23.292;2023-04-08T00:14:46;93903.66;;;5.88;50.11
30935;BME280;51033;42.648;23.292;2023-04-08T00:17:12;93899.16;;;5.89;49.93
30935;BME280;51033;42.648;23.292;2023-04-08T00:19:37;93876.47;;;5.88;49.55
30935;BME280;51033;42.648;23.292;2023-04-08T00:22:02;93878.47;;;5.77;49.96
30935;BME280;51033;42.648;23.292;2023-04-08T00:24:28;93876.47;;;5.64;50.10
30935;BME280;51033;42.648;23.292;2023-04-08T00:26:53;93885.28;;;5.78;50.00
30935;BME280;51033;42.648;23.292;2023-04-08T00:29:19;93889.28;;;5.99;48.92
30935;BME280;51033;42.648;23.292;2023-04-08T00:31:44;93880.47;;;5.85;48.98
30935;BME280;51033;42.648;23.292;2023-04-08T00:34:10;93897.81;;;5.91;49.05
30935;BME280;51033;42.648;23.292;2023-04-08T00:36:35;93881.09;;;5.77;49.47
30935;BME280;51033;42.648;23.292;2023-04-08T00:39:01;93900.75;;;5.90;49.73
30935;BME280;51033;42.648;23.292;2023-04-08T00:41:28;93894.72;;;5.84;49.38
30935;BME280;51033;42.648;23.292;2023-04-08T00:43:53;93909.44;;;5.90;49.09
30935;BME280;51033;42.648;23.292;2023-04-08T00:46:20;93902.06;;;5.87;49.11
30935;BME280;51033;42.648;23.292;2023-04-08T00:48:46;93889.81;;;5.73;49.48
30935;BME280;51033;42.648;23.292;2023-04-08T00:51:11;93876.47;;;5.64;49.67
30935;BME280;51033;42.648;23.292;2023-04-08T00:53:37;93905.84;;;5.81;49.77
30935;BME280;51033;42.648;23.292;2023-04-08T00:56:02;93909.56;;;5.80;50.20
30935;BME280;51033;42.648;23.292;2023-04-08T00:58:28;93877.47;;;5.68;49.81
30935;BME280;51033;42.648;23.292;2023-04-08T01:01:21;93893.19;;;5.78;49.96
30935;BME280;51033;42.648;23.292;2023-04-08T01:03:53;93885.69;;;5.67;50.29
30935;BME280;51033;42.648;23.292;2023-04-08T01:06:39;93892.78;;;5.71;50.70
30935;BME280;51033;42.648;23.292;2023-04-08T01:09:08;93912.69;;;5.82;50.83
30935;BME280;51033;42.648;23.292;2023-04-08T01:11:35;93918.44;;;5.89;50.33
30935;BME280;51033;42.648;23.292;2023-04-08T01:14:04;93912.63;;;5.87;50.14
30935;BME280;51033;42.648;23.292;2023-04-08T01:16:32;93909.66;;;5.94;49.87
30935;BME280;51033;42.648;23.292;2023-04-08T01:18:59;93915.50;;;5.91;50.06
30935;BME280;51033;42.648;23.292;2023-04-08T01:21:26;93909.19;;;5.92;50.09
30935;BME280;51033;42.648;23.292;2023-04-08T01:24:08;93900.78;;;5.85;50.36
30935;BME280;51033;42.648;23.292;2023-04-08T01:26:38;93898.16;;;5.85;50.29
30935;BME280;51033;42.648;23.292;2023-04-08T01:29:04;93897.94;;;5.81;50.19
30935;BME280;51033;42.648;23.292;2023-04-08T01:31:31;93904.75;;;5.82;50.11
30935;BME280;51033;42.648;23.292;2023-04-08T01:33:58;93914.22;;;5.88;50.72
30935;BME280;51033;42.648;23.292;2023-04-08T01:36:25;93896.03;;;5.87;49.95
30935;BME280;51033;42.648;23.292;2023-04-08T01:38:52;93907.25;;;5.97;49.97
30935;BME280;51033;42.648;23.292;2023-04-08T01:41:19;93903.66;;;5.88;50.05
30935;BME280;51033;42.648;23.292;2023-04-08T01:43:46;93918.88;;;5.96;50.39
30935;BME280;51033;42.648;23.292;2023-04-08T01:46:12;93913.31;;;5.98;50.38
30935;BME280;51033;42.648;23.292;2023-04-08T01:48:39;93894.09;;;5.92;50.56
30935;BME280;51033;42.648;23.292;2023-04-08T01:51:05;93912.19;;;6.04;50.36
30935;BME280;51033;42.648;23.292;2023-04-08T01:53:31;93880.00;;;6.02;50.30
30935;BME280;51033;42.648;23.292;2023-04-08T01:56:04;93904.13;;;6.19;49.84
30935;BME280;51033;42.648;23.292;2023-04-08T01:58:34;93914.72;;;6.14;50.21
30935;BME280;51033;42.648;23.292;2023-04-08T02:01:01;93916.56;;;6.14;50.14
30935;BME280;51033;42.648;23.292;2023-04-08T02:03:28;93922.41;;;6.11;50.08
30935;BME280;51033;42.648;23.292;2023-04-08T02:05:55;93915.28;;;6.11;49.90
30935;BME280;51033;42.648;23.292;2023-04-08T02:08:20;93929.63;;;6.29;49.60
30935;BME280;51033;42.648;23.292;2023-04-08T02:10:45;93931.47;;;6.28;49.76
30935;BME280;51033;42.648;23.292;2023-04-08T02:13:11;93928.19;;;6.13;50.14
30935;BME280;51033;42.648;23.292;2023-04-08T02:15:41;93922.13;;;5.88;50.34
30935;BME280;51033;42.648;23.292;2023-04-08T02:18:16;93936.34;;;5.92;49.80
30935;BME280;51033;42.648;23.292;2023-04-08T02:20:52;93932.19;;;5.86;50.27
30935;BME280;51033;42.648;23.292;2023-04-08T02:23:21;93920.59;;;5.82;50.07
30935;BME280;51033;42.648;23.292;2023-04-08T02:25:48;93945.34;;;5.91;51.03
30935;BME280;51033;42.648;23.292;2023-04-08T02:28:16;93942.50;;;5.83;50.92
30935;BME280;51033;42.648;23.292;2023-04-08T02:30:47;93937.59;;;6.00;50.55
30935;BME280;51033;42.648;23.292;2023-04-08T02:33:13;93932.56;;;5.98;50.26
30935;BME280;51033;42.648;23.292;2023-04-08T02:35:40;93927.47;;;5.83;50.54
30935;BME280;51033;42.648;23.292;2023-04-08T02:38:06;93938.47;;;5.90;51.02
30935;BME280;51033;42.648;23.292;2023-04-08T02:40:32;93934.16;;;5.99;50.13
30935;BME280;51033;42.648;23.292;2023-04-08T02:42:58;93940.97;;;6.06;50.38
30935;BME280;51033;42.648;23.292;2023-04-08T02:45:27;93910.41;;;5.76;50.72
30935;BME280;51033;42.648;23.292;2023-04-08T02:47:54;93932.09;;;5.96;50.74
30935;BME280;51033;42.648;23.292;2023-04-08T02:50:19;93934.88;;;6.05;50.59
30935;BME280;51033;42.648;23.292;2023-04-08T02:52:45;93940.72;;;6.02;50.62
30935;BME280;51033;42.648;23.292;2023-04-08T02:55:10;93925.44;;;5.99;50.81
30935;BME280;51033;42.648;23.292;2023-04-08T02:57:37;93895.78;;;5.83;51.00
30935;BME280;51033;42.648;23.292;2023-04-08T03:00:04;93906.97;;;5.99;51.13
30935;BME280;51033;42.648;23.292;2023-04-08T03:02:30;93938.75;;;6.13;50.97
30935;BME280;51033;42.648;23.292;2023-04-08T03:04:55;93929.78;;;5.90;51.99
30935;BME280;51033;42.648;23.292;2023-04-08T03:07:21;93909.81;;;5.79;51.78
30935;BME280;51033;42.648;23.292;2023-04-08T03:09:46;93913.41;;;5.64;51.69
30935;BME280;51033;42.648;23.292;2023-04-08T03:12:12;93931.59;;;5.66;51.59
30935;BME280;51033;42.648;23.292;2023-04-08T03:14:37;93945.88;;;5.88;51.47
30935;BME280;51033;42.648;23.292;2023-04-08T03:17:02;93943.53;;;6.11;51.06
30935;BME280;51033;42.648;23.292;2023-04-08T03:19:28;93923.44;;;5.91;51.38
30935;BME280;51033;42.648;23.292;2023-04-08T03:21:53;93921.13;;;5.84;51.59
30935;BME280;51033;42.648;23.292;2023-04-08T03:24:18;93908.03;;;5.74;51.77
30935;BME280;51033;42.648;23.292;2023-04-08T03:26:44;93935.22;;;5.98;51.52
30935;BME280;51033;42.648;23.292;2023-04-08T03:29:09;93933.25;;;5.85;51.30
30935;BME280;51033;42.648;23.292;2023-04-08T03:31:35;93935.09;;;5.85;51.57
30935;BME280;51033;42.648;23.292;2023-04-08T03:34:00;93930.16;;;5.78;51.50
30935;BME280;51033;42.648;23.292;2023-04-08T03:36:26;93943.06;;;5.80;51.83
30935;BME280;51033;42.648;23.292;2023-04-08T03:38:51;93916.78;;;5.70;52.41
30935;BME280;51033;42.648;23.292;2023-04-08T03:41:17;93934.31;;;5.84;51.95
30935;BME280;51033;42.648;23.292;2023-04-08T03:43:42;93945.88;;;5.88;51.83
30935;BME280;51033;42.648;23.292;2023-04-08T03:46:07;93948.47;;;5.93;52.16
30935;BME280;51033;42.648;23.292;2023-04-08T03:48:33;93939.94;;;6.02;51.50
30935;BME280;51033;42.648;23.292;2023-04-08T03:50:58;93942.06;;;5.99;51.24
30935;BME280;51033;42.648;23.292;2023-04-08T03:53:24;93923.03;;;6.02;51.26
30935;BME280;51033;42.648;23.292;2023-04-08T03:55:52;93936.16;;;6.08;50.95
30935;BME280;51033;42.648;23.292;2023-04-08T03:58:17;93935.16;;;6.04;51.39
30935;BME280;51033;42.648;23.292;2023-04-08T04:00:43;93934.44;;;5.98;51.70
30935;BME280;51033;42.648;23.292;2023-04-08T04:03:08;93934.31;;;5.84;52.02
30935;BME280;51033;42.648;23.292;2023-04-08T04:05:37;93933.41;;;5.70;52.12
30935;BME280;51033;42.648;23.292;2023-04-08T04:08:03;93938.22;;;5.92;51.47
30935;BME280;51033;42.648;23.292;2023-04-08T04:10:28;93900.84;;;5.80;51.30
30935;BME280;51033;42.648;23.292;2023-04-08T04:12:53;93916.47;;;6.00;51.21
30935;BME280;51033;42.648;23.292;2023-04-08T04:15:19;93933.53;;;6.08;51.01
30935;BME280;51033;42.648;23.292;2023-04-08T04:17:47;93912.94;;;5.86;51.54
30935;BME280;51033;42.648;23.292;2023-04-08T04:20:14;93945.19;;;6.07;51.50
30935;BME280;51033;42.648;23.292;2023-04-08T04:22:39;93937.97;;;5.88;51.85
30935;BME280;51033;42.648;23.292;2023-04-08T04:25:05;93948.94;;;5.77;51.92
30935;BME280;51033;42.648;23.292;2023-04-08T04:27:30;93942.91;;;5.71;52.22
30935;BME280;51033;42.648;23.292;2023-04-08T04:29:56;93938.13;;;5.73;52.32
30935;BME280;51033;42.648;23.292;2023-04-08T04:32:21;93949.47;;;5.74;52.32
30935;BME280;51033;42.648;23.292;2023-04-08T04:34:46;93953.72;;;5.70;53.00
30935;BME280;51033;42.648;23.292;2023-04-08T04:37:12;93937.69;;;5.66;52.41
30935;BME280;51033;42.648;23.292;2023-04-08T04:39:37;93935.53;;;5.68;52.03
30935;BME280;51033;42.648;23.292;2023-04-08T04:42:03;93946.56;;;5.75;52.20
30935;BME280;51033;42.648;23.292;2023-04-08T04:44:28;93958.16;;;5.74;52.69
30935;BME280;51033;42.648;23.292;2023-04-08T04:46:54;93947.66;;;5.69;52.86
30935;BME280;51033;42.648;23.292;2023-04-08T04:49:20;93939.25;;;5.67;52.78
30935;BME280;51033;42.648;23.292;2023-04-08T04:51:45;93913.28;;;5.50;52.29
30935;BME280;51033;42.648;23.292;2023-04-08T04:54:11;93965.47;;;5.82;52.91
30935;BME280;51033;42.648;23.292;2023-04-08T04:56:36;93935.09;;;5.61;52.04
30935;BME280;51033;42.648;23.292;2023-04-08T04:59:02;93964.13;;;5.85;52.42
30935;BME280;51033;42.648;23.292;2023-04-08T05:01:29;93967.31;;;5.87;52.79
30935;BME280;51033;42.648;23.292;2023-04-08T05:03:54;93941.78;;;5.77;52.56
30935;BME280;51033;42.648;23.292;2023-04-08T05:06:22;93966.56;;;6.05;51.46
30935;BME280;51033;42.648;23.292;2023-04-08T05:08:47;93949.94;;;6.05;51.34
30935;BME280;51033;42.648;23.292;2023-04-08T05:11:13;93942.41;;;5.93;51.32
30935;BME280;51033;42.648;23.292;2023-04-08T05:13:38;93962.63;;;6.02;51.45
30935;BME280;51033;42.648;23.292;2023-04-08T05:16:04;93962.50;;;6.13;50.46
30935;BME280;51033;42.648;23.292;2023-04-08T05:18:29;93946.50;;;5.80;50.08
30935;BME280;51033;42.648;23.292;2023-04-08T05:20:54;93945.56;;;5.95;49.79
30935;BME280;51033;42.648;23.292;2023-04-08T05:23:20;93948.94;;;6.00;49.47
30935;BME280;51033;42.648;23.292;2023-04-08T05:25:45;93956.81;;;6.06;49.70
30935;BME280;51033;42.648;23.292;2023-04-08T05:28:11;93965.22;;;5.55;50.33
30935;BME280;51033;42.648;23.292;2023-04-08T05:30:36;93960.19;;;5.82;50.42
30935;BME280;51033;42.648;23.292;2023-04-08T05:33:02;93966.47;;;5.91;50.40
30935;BME280;51033;42.648;23.292;2023-04-08T05:35:27;93970.66;;;5.92;50.22
30935;BME280;51033;42.648;23.292;2023-04-08T05:37:53;93962.91;;;5.14;50.93
30935;BME280;51033;42.648;23.292;2023-04-08T05:40:18;93973.25;;;5.06;50.63
30935;BME280;51033;42.648;23.292;2023-04-08T05:42:44;93961.41;;;5.37;50.54
30935;BME280;51033;42.648;23.292;2023-04-08T05:45:09;93968.72;;;5.11;50.83
30935;BME280;51033;42.648;23.292;2023-04-08T05:47:35;93962.59;;;5.21;51.64
30935;BME280;51033;42.648;23.292;2023-04-08T05:50:00;93927.34;;;5.12;51.30
30935;BME280;51033;42.648;23.292;2023-04-08T05:52:26;93925.81;;;5.35;50.58
30935;BME280;51033;42.648;23.292;2023-04-08T05:54:51;93945.34;;;5.34;51.12
30935;BME280;51033;42.648;23.292;2023-04-08T05:57:16;93955.13;;;5.62;50.62
30935;BME280;51033;42.648;23.292;2023-04-08T05:59:42;93955.50;;;5.50;51.01
30935;BME280;51033;42.648;23.292;2023-04-08T06:02:07;93960.50;;;5.52;51.16
30935;BME280;51033;42.648;23.292;2023-04-08T06:04:32;93958.59;;;5.86;50.56
30935;BME280;51033;42.648;23.292;2023-04-08T06:06:58;93959.59;;;5.33;51.42
30935;BME280;51033;42.648;23.292;2023-04-08T06:09:25;93933.09;;;5.48;51.06
30935;BME280;51033;42.648;23.292;2023-04-08T06:11:51;93963.53;;;5.35;51.13
30935;BME280;51033;42.648;23.292;2023-04-08T06:14:16;93947.44;;;4.64;52.68
30935;BME280;51033;42.648;23.292;2023-04-08T06:16:42;93949.06;;;4.99;52.68
30935;BME280;51033;42.648;23.292;2023-04-08T06:19:07;93964.47;;;5.16;52.40
30935;BME280;51033;42.648;23.292;2023-04-08T06:21:32;93940.59;;;5.36;51.61
30935;BME280;51033;42.648;23.292;2023-04-08T06:23:58;93963.19;;;5.76;51.21
30935;BME280;51033;42.648;23.292;2023-04-08T06:26:23;93952.38;;;5.43;52.14
30935;BME280;51033;42.648;23.292;2023-04-08T06:28:49;93964.22;;;5.17;52.97
30935;BME280;51033;42.648;23.292;2023-04-08T06:31:14;93943.19;;;4.68;54.20
30935;BME280;51033;42.648;23.292;2023-04-08T06:33:40;93961.44;;;4.98;54.13
30935;BME280;51033;42.648;23.292;2023-04-08T06:36:06;93968.41;;;4.84;54.37
30935;BME280;51033;42.648;23.292;2023-04-08T06:38:32;93947.41;;;4.69;54.49
30935;BME280;51033;42.648;23.292;2023-04-08T06:41:05;93959.66;;;4.45;54.87
30935;BME280;51033;42.648;23.292;2023-04-08T06:43:31;93979.53;;;4.66;54.93
30935;BME280;51033;42.648;23.292;2023-04-08T06:46:00;93969.75;;;4.77;54.03
30935;BME280;51033;42.648;23.292;2023-04-08T06:48:26;93959.59;;;4.55;55.02
30935;BME280;51033;42.648;23.292;2023-04-08T06:50:59;93983.66;;;4.33;55.53
30935;BME280;51033;42.648;23.292;2023-04-08T06:53:26;93982.59;;;4.34;55.96
30935;BME280;51033;42.648;23.292;2023-04-08T06:55:53;93962.31;;;4.40;55.84
30935;BME280;51033;42.648;23.292;2023-04-08T06:58:19;93941.84;;;4.70;54.56
30935;BME280;51033;42.648;23.292;2023-04-08T07:00:44;93960.06;;;5.06;53.70
30935;BME280;51033;42.648;23.292;2023-04-08T07:03:10;93961.88;;;5.10;53.63
30935;BME280;51033;42.648;23.292;2023-04-08T07:05:35;93966.81;;;4.83;53.97
30935;BME280;51033;42.648;23.292;2023-04-08T07:08:01;93978.22;;;5.12;53.86
30935;BME280;51033;42.648;23.292;2023-04-08T07:10:27;93944.47;;;5.09;53.65
30935;BME280;51033;42.648;23.292;2023-04-08T07:12:53;93959.59;;;5.33;52.76
30935;BME280;51033;42.648;23.292;2023-04-08T07:15:18;93977.03;;;5.91;52.04
30935;BME280;51033;42.648;23.292;2023-04-08T07:17:44;93975.16;;;5.92;52.06
30935;BME280;51033;42.648;23.292;2023-04-08T07:20:10;93980.72;;;5.90;51.85
30935;BME280;51033;42.648;23.292;2023-04-08T07:22:36;93986.41;;;5.74;52.01
30935;BME280;51033;42.648;23.292;2023-04-08T07:25:01;93979.50;;;5.49;53.32
30935;BME280;51033;42.648;23.292;2023-04-08T07:27:27;93985.72;;;5.29;53.94
30935;BME280;51033;42.648;23.292;2023-04-08T07:29:52;93986.31;;;4.82;55.67
30935;BME280;51033;42.648;23.292;2023-04-08T07:32:19;93997.03;;;5.35;55.04
30935;BME280;51033;42.648;23.292;2023-04-08T07:34:44;93965.56;;;5.09;54.84
30935;BME280;51033;42.648;23.292;2023-04-08T07:37:09;93984.06;;;5.72;53.80
30935;BME280;51033;42.648;23.292;2023-04-08T07:39:35;93977.16;;;5.76;53.79
30935;BME280;51033;42.648;23.292;2023-04-08T07:42:00;93982.91;;;6.07;53.59
30935;BME280;51033;42.648;23.292;2023-04-08T07:44:26;93976.28;;;5.57;53.81
30935;BME280;51033;42.648;23.292;2023-04-08T07:46:51;93980.91;;;5.70;53.37
30935;BME280;51033;42.648;23.292;2023-04-08T07:49:16;93988.59;;;5.38;54.29
30935;BME280;51033;42.648;23.292;2023-04-08T07:51:42;93989.22;;;5.53;53.93
30935;BME280;51033;42.648;23.292;2023-04-08T07:54:07;93976.16;;;6.25;52.35
30935;BME280;51033;42.648;23.292;2023-04-08T07:56:34;94007.59;;;6.69;50.52
30935;BME280;51033;42.648;23.292;2023-04-08T07:59:00;94012.47;;;6.80;51.00
30935;BME280;51033;42.648;23.292;2023-04-08T08:01:25;93998.41;;;7.04;50.80
30935;BME280;51033;42.648;23.292;2023-04-08T08:03:53;94014.78;;;7.43;49.39
30935;BME280;51033;42.648;23.292;2023-04-08T08:06:19;94018.34;;;7.15;50.05
30935;BME280;51033;42.648;23.292;2023-04-08T08:08:45;93990.69;;;6.89;50.97
30935;BME280;51033;42.648;23.292;2023-04-08T08:11:11;94002.78;;;6.52;50.86
30935;BME280;51033;42.648;23.292;2023-04-08T08:13:36;94015.03;;;6.43;52.25
30935;BME280;51033;42.648;23.292;2023-04-08T08:16:05;94015.66;;;6.59;51.72
30935;BME280;51033;42.648;23.292;2023-04-08T08:18:33;94014.31;;;6.09;52.80
30935;BME280;51033;42.648;23.292;2023-04-08T08:21:00;94015.31;;;5.89;53.36
30935;BME280;51033;42.648;23.292;2023-04-08T08:23:25;94008.19;;;5.89;52.79
30935;BME280;51033;42.648;23.292;2023-04-08T08:25:58;94023.53;;;6.16;52.64
30935;BME280;51033;42.648;23.292;2023-04-08T08:28:24;94012.78;;;6.31;52.63
30935;BME280;51033;42.648;23.292;2023-04-08T08:30:49;93983.44;;;6.75;50.93
30935;BME280;51033;42.648;23.292;2023-04-08T08:33:14;93980.50;;;6.58;51.28
30935;BME280;51033;42.648;23.292;2023-04-08T08:35:40;94001.28;;;6.89;50.63
30935;BME280;51033;42.648;23.292;2023-04-08T08:38:05;94007.16;;;6.62;51.52
30935;BME280;51033;42.648;23.292;2023-04-08T08:40:31;94002.78;;;6.52;51.92
30935;BME280;51033;42.648;23.292;2023-04-08T08:42:57;94020.72;;;6.31;52.53
30935;BME280;51033;42.648;23.292;2023-04-08T08:45:25;93995.66;;;6.00;53.18
30935;BME280;51033;42.648;23.292;2023-04-08T08:47:50;94017.81;;;6.04;53.17
30935;BME280;51033;42.648;23.292;2023-04-08T08:50:16;93971.75;;;5.91;52.69
30935;BME280;51033;42.648;23.292;2023-04-08T08:52:51;94003.78;;;6.32;52.14
30935;BME280;51033;42.648;23.292;2023-04-08T08:55:18;94023.81;;;6.81;51.17
30935;BME280;51033;42.648;23.292;2023-04-08T08:57:44;94021.84;;;7.29;51.47
30935;BME280;51033;42.648;23.292;2023-04-08T09:00:10;94012.41;;;7.42;49.45
30935;BME280;51033;42.648;23.292;2023-04-08T09:02:36;94013.09;;;6.72;50.11
30935;BME280;51033;42.648;23.292;2023-04-08T09:05:03;94021.84;;;6.25;51.68
30935;BME280;51033;42.648;23.292;2023-04-08T09:07:30;94007.69;;;6.40;51.86
30935;BME280;51033;42.648;23.292;2023-04-08T09:09:58;94021.53;;;6.27;51.91
30935;BME280;51033;42.648;23.292;2023-04-08T09:12:24;94020.59;;;6.41;52.35
30935;BME280;51033;42.648;23.292;2023-04-08T09:15:10;94012.50;;;6.57;52.56
30935;BME280;51033;42.648;23.292;2023-04-08T09:17:37;94024.81;;;6.19;52.94
30935;BME280;51033;42.648;23.292;2023-04-08T09:20:08;94022.69;;;6.21;53.42
30935;BME280;51033;42.648;23.292;2023-04-08T09:25:31;94008.75;;;6.39;53.24
30935;BME280;51033;42.648;23.292;2023-04-08T09:27:57;93993.53;;;6.31;53.54
30935;BME280;51033;42.648;23.292;2023-04-08T09:30:24;94008.00;;;6.57;53.71
30935;BME280;51033;42.648;23.292;2023-04-08T09:32:52;94007.69;;;6.82;54.08
30935;BME280;51033;42.648;23.292;2023-04-08T09:35:22;94011.22;;;6.54;54.11
30935;BME280;51033;42.648;23.292;2023-04-08T09:37:48;93994.59;;;6.72;54.41
30935;BME280;51033;42.648;23.292;2023-04-08T09:40:14;93982.91;;;6.78;52.23
30935;BME280;51033;42.648;23.292;2023-04-08T09:42:47;94000.69;;;6.73;52.52
30935;BME280;51033;42.648;23.292;2023-04-08T09:45:16;93981.97;;;6.69;52.85
30935;BME280;51033;42.648;23.292;2023-04-08T09:50:15;93982.97;;;7.11;51.01
30935;BME280;51033;42.648;23.292;2023-04-08T09:52:45;93991.97;;;7.10;51.03
30935;BME280;51033;42.648;23.292;2023-04-08T09:55:12;93969.94;;;6.96;50.99
30935;BME280;51033;42.648;23.292;2023-04-08T10:00:25;93969.28;;;7.41;49.94
30935;BME280;51033;42.648;23.292;2023-04-08T10:03:25;93926.78;;;7.19;50.13
30935;BME280;51033;42.648;23.292;2023-04-08T10:05:53;93977.81;;;7.01;51.63
30935;BME280;51033;42.648;23.292;2023-04-08T10:08:21;93989.75;;;6.98;51.78
30935;BME280;51033;42.648;23.292;2023-04-08T10:10:46;93965.72;;;6.57;52.07
30935;BME280;51033;42.648;23.292;2023-04-08T10:13:12;93961.75;;;6.97;51.78
30935;BME280;51033;42.648;23.292;2023-04-08T10:15:38;93976.41;;;7.08;51.87
30935;BME280;51033;42.648;23.292;2023-04-08T10:23:10;93983.63;;;6.84;52.20
30935;BME280;51033;42.648;23.292;2023-04-08T10:33:11;93985.19;;;7.04;52.94
30935;BME280;51033;42.648;23.292;2023-04-08T10:35:40;93974.22;;;7.29;52.99
30935;BME280;51033;42.648;23.292;2023-04-08T10:38:07;93970.19;;;7.50;53.02
30935;BME280;51033;42.648;23.292;2023-04-08T10:40:36;93977.25;;;7.22;53.82
30935;BME280;51033;42.648;23.292;2023-04-08T10:43:03;93956.66;;;7.01;55.71
30935;BME280;51033;42.648;23.292;2023-04-08T10:45:29;93906.31;;;6.55;56.24
30935;BME280;51033;42.648;23.292;2023-04-08T10:47:55;93962.59;;;7.11;55.74
30935;BME280;51033;42.648;23.292;2023-04-08T10:50:20;93949.78;;;7.37;55.23
30935;BME280;51033;42.648;23.292;2023-04-08T10:52:52;93956.38;;;7.21;54.82
30935;BME280;51033;42.648;23.292;2023-04-08T10:55:24;93959.28;;;7.19;54.41
30935;BME280;51033;42.648;23.292;2023-04-08T10:57:50;93958.25;;;7.02;54.13
30935;BME280;51033;42.648;23.292;2023-04-08T11:00:32;93949.38;;;7.44;53.23
30935;BME280;51033;42.648;23.292;2023-04-08T11:03:09;93941.66;;;7.47;52.35
30935;BME280;51033;42.648;23.292;2023-04-08T11:05:35;93951.41;;;7.65;51.78
30935;BME280;51033;42.648;23.292;2023-04-08T11:08:01;93948.25;;;7.63;51.03
30935;BME280;51033;42.648;23.292;2023-04-08T11:10:27;93924.47;;;7.31;51.53
30935;BME280;51033;42.648;23.292;2023-04-08T11:12:54;93910.28;;;7.08;52.61
30935;BME280;51033;42.648;23.292;2023-04-08T11:15:23;93940.16;;;7.41;52.75
30935;BME280;51033;42.648;23.292;2023-04-08T11:17:49;93917.50;;;7.03;52.37
30935;BME280;51033;42.648;23.292;2023-04-08T11:20:15;93936.84;;;7.17;52.55
30935;BME280;51033;42.648;23.292;2023-04-08T11:22:41;93915.66;;;7.36;52.60
30935;BME280;51033;42.648;23.292;2023-04-08T11:25:07;93919.63;;;7.01;51.48
30935;BME280;51033;42.648;23.292;2023-04-08T11:27:35;93924.38;;;7.04;52.01
30935;BME280;51033;42.648;23.292;2023-04-08T11:30:01;93919.72;;;6.96;51.77
30935;BME280;51033;42.648;23.292;2023-04-08T11:32:27;93915.63;;;7.22;51.58
30935;BME280;51033;42.648;23.292;2023-04-08T11:34:53;93887.63;;;7.35;50.63
30935;BME280;51033;42.648;23.292;2023-04-08T11:37:19;93905.91;;;7.63;50.42
30935;BME280;51033;42.648;23.292;2023-04-08T11:39:45;93884.16;;;7.66;50.40
30935;BME280;51033;42.648;23.292;2023-04-08T11:42:31;93899.81;;;7.82;49.23
30935;BME280;51033;42.648;23.292;2023-04-08T11:44:58;93902.59;;;7.71;48.74
30935;BME280;51033;42.648;23.292;2023-04-08T11:47:31;93905.91;;;7.63;48.75
30935;BME280;51033;42.648;23.292;2023-04-08T11:49:57;93871.03;;;7.61;47.97
30935;BME280;51033;42.648;23.292;2023-04-08T11:52:45;93894.59;;;7.77;48.34
30935;BME280;51033;42.648;23.292;2023-04-08T11:55:20;93897.34;;;7.99;48.58
30935;BME280;51033;42.648;23.292;2023-04-08T11:57:46;93868.91;;;7.91;48.19
30935;BME280;51033;42.648;23.292;2023-04-08T12:00:12;93884.22;;;8.21;48.13
30935;BME280;51033;42.648;23.292;2023-04-08T12:02:39;93873.41;;;8.31;48.60
30935;BME280;51033;42.648;23.292;2023-04-08T12:05:05;93864.56;;;8.22;47.76
30935;BME280;51033;42.648;23.292;2023-04-08T12:07:31;93882.59;;;8.34;46.79
30935;BME280;51033;42.648;23.292;2023-04-08T12:09:56;93841.47;;;7.87;47.62
30935;BME280;51033;42.648;23.292;2023-04-08T12:12:22;93855.94;;;8.03;47.99
30935;BME280;51033;42.648;23.292;2023-04-08T12:14:47;93857.72;;;8.21;47.70
30935;BME280;51033;42.648;23.292;2023-04-08T12:17:15;93869.19;;;8.66;48.21
30935;BME280;51033;42.648;23.292;2023-04-08T12:19:40;93832.66;;;8.85;47.99
30935;BME280;51033;42.648;23.292;2023-04-08T12:22:06;93857.19;;;9.05;46.42
30935;BME280;51033;42.648;23.292;2023-04-08T12:24:31;93867.03;;;8.90;46.34
30935;BME280;51033;42.648;23.292;2023-04-08T12:26:57;93859.84;;;8.69;45.47
30935;BME280;51033;42.648;23.292;2023-04-08T12:29:22;93870.56;;;8.64;45.85
30935;BME280;51033;42.648;23.292;2023-04-08T12:31:48;93856.81;;;8.12;46.84
30935;BME280;51033;42.648;23.292;2023-04-08T12:34:13;93857.16;;;7.97;46.69
30935;BME280;51033;42.648;23.292;2023-04-08T12:36:38;93852.03;;;7.87;47.08
30935;BME280;51033;42.648;23.292;2023-04-08T12:39:05;93835.63;;;7.57;47.69
30935;BME280;51033;42.648;23.292;2023-04-08T12:41:31;93844.38;;;7.71;47.56
30935;BME280;51033;42.648;23.292;2023-04-08T12:43:57;93800.44;;;6.97;48.21
30935;BME280;51033;42.648;23.292;2023-04-08T12:46:23;93838.31;;;7.25;48.46
30935;BME280;51033;42.648;23.292;2023-04-08T12:48:48;93849.66;;;7.12;49.49
30935;BME280;51033;42.648;23.292;2023-04-08T12:51:13;93834.03;;;6.64;50.33
30935;BME280;51033;42.648;23.292;2023-04-08T12:53:39;93844.38;;;6.79;50.51
30935;BME280;51033;42.648;23.292;2023-04-08T12:56:04;93848.63;;;6.94;49.87
30935;BME280;51033;42.648;23.292;2023-04-08T12:58:30;93860.22;;;7.12;50.00
30935;BME280;51033;42.648;23.292;2023-04-08T13:00:55;93856.44;;;7.18;49.42
30935;BME280;51033;42.648;23.292;2023-04-08T13:03:21;93869.91;;;7.03;50.03
30935;BME280;51033;42.648;23.292;2023-04-08T13:05:46;93868.34;;;7.02;49.99
30935;BME280;51033;42.648;23.292;2023-04-08T13:08:12;93862.84;;;6.98;50.32
30935;BME280;51033;42.648;23.292;2023-04-08T13:10:38;93837.75;;;6.96;51.30
30935;BME280;51033;42.648;23.292;2023-04-08T13:13:04;93838.69;;;6.86;55.60
30935;BME280;51033;42.648;23.292;2023-04-08T13:15:29;93856.13;;;6.87;56.50
30935;BME280;51033;42.648;23.292;2023-04-08T13:17:54;93849.22;;;7.05;57.83